sensor_id;sensor_type;location;lat;lon;timestamp;P1;durP1;ratioP1;P2;durP2;ratioP2
59788;SDS011;47353;51.614;5.530;2023-04-12T00:02:03;6.90;;;2.28;;
59788;SDS011;47353;51.614;5.530;2023-04-12T00:04:28;6.90;;;1.85;;
59788;SDS011;47353;51.614;5.530;2023-04-12T00:06:54;6.35;;;2.03;;
59788;SDS011;47353;51.614;5.530;2023-04-12T00:09:20;5.20;;;1.45;;
59788;SDS011;47353;51.614;5.530;2023-04-12T00:11:45;6.80;;;1.75;;
59788;SDS011;47353;51.614;5.530;2023-04-12T00:14:11;5.15;;;2.05;;
59788;SDS011;47353;51.614;5.530;2023-04-12T00:16:37;6.95;;;1.98;;
59788;SDS011;47353;51.614;5.530;2023-04-12T00:19:03;7.18;;;2.00;;
59788;SDS011;47353;51.614;5.530;2023-04-12T00:21:29;3.13;;;1.45;;
59788;SDS011;47353;51.614;5.530;2023-04-12T00:23:54;5.70;;;2.17;;
59788;SDS011;47353;51.614;5.530;2023-04-12T00:26:21;6.88;;;2.05;;
59788;SDS011;47353;51.614;5.530;2023-04-12T00:28:46;6.80;;;2.00;;
59788;SDS011;47353;51.614;5.530;2023-04-12T00:31:12;5.13;;;1.70;;
59788;SDS011;47353;51.614;5.530;2023-04-12T00:33:37;8.63;;;2.30;;
59788;SDS011;47353;51.614;5.530;2023-04-12T00:36:03;4.10;;;1.92;;
59788;SDS011;47353;51.614;5.530;2023-04-12T00:38:28;4.55;;;1.90;;
59788;SDS011;47353;51.614;5.530;2023-04-12T00:40:54;6.63;;;2.30;;
59788;SDS011;47353;51.614;5.530;2023-04-12T00:43:19;9.45;;;2.13;;
59788;SDS011;47353;51.614;5.530;2023-04-12T00:45:45;2.25;;;1.52;;
59788;SDS011;47353;51.614;5.530;2023-04-12T00:48:11;9.98;;;2.20;;
59788;SDS011;47353;51.614;5.530;2023-04-12T00:50:38;7.30;;;2.00;;
59788;SDS011;47353;51.614;5.530;2023-04-12T00:53:09;6.85;;;2.10;;
59788;SDS011;47353;51.614;5.530;2023-04-12T00:55:37;8.05;;;2.30;;
59788;SDS011;47353;51.614;5.530;2023-04-12T00:58:04;6.82;;;2.38;;
59788;SDS011;47353;51.614;5.530;2023-04-12T01:00:30;4.75;;;2.20;;
59788;SDS011;47353;51.614;5.530;2023-04-12T01:02:58;6.43;;;2.30;;
59788;SDS011;47353;51.614;5.530;2023-04-12T01:05:26;9.10;;;1.92;;
59788;SDS011;47353;51.614;5.530;2023-04-12T01:08:13;5.80;;;2.30;;
59788;SDS011;47353;51.614;5.530;2023-04-12T01:10:56;7.78;;;2.17;;
59788;SDS011;47353;51.614;5.530;2023-04-12T01:13:40;7.07;;;2.10;;
59788;SDS011;47353;51.614;5.530;2023-04-12T01:19:06;7.53;;;2.20;;
59788;SDS011;47353;51.614;5.530;2023-04-12T01:27:33;9.15;;;1.88;;
59788;SDS011;47353;51.614;5.530;2023-04-12T01:30:15;6.65;;;2.78;;
59788;SDS011;47353;51.614;5.530;2023-04-12T01:32:44;6.00;;;1.90;;
59788;SDS011;47353;51.614;5.530;2023-04-12T01:35:15;7.28;;;2.60;;
59788;SDS011;47353;51.614;5.530;2023-04-12T01:37:42;8.80;;;2.13;;
59788;SDS011;47353;51.614;5.530;2023-04-12T01:40:08;3.78;;;1.85;;
59788;SDS011;47353;51.614;5.530;2023-04-12T01:42:34;4.80;;;1.88;;
59788;SDS011;47353;51.614;5.530;2023-04-12T01:45:00;5.57;;;1.98;;
59788;SDS011;47353;51.614;5.530;2023-04-12T01:47:27;6.00;;;1.77;;
59788;SDS011;47353;51.614;5.530;2023-04-12T01:52:53;4.25;;;1.95;;
59788;SDS011;47353;51.614;5.530;2023-04-12T01:55:28;6.82;;;2.05;;
59788;SDS011;47353;51.614;5.530;2023-04-12T01:57:55;6.10;;;2.33;;
59788;SDS011;47353;51.614;5.530;2023-04-12T02:00:22;6.68;;;2.30;;
59788;SDS011;47353;51.614;5.530;2023-04-12T02:02:48;7.70;;;2.35;;
59788;SDS011;47353;51.614;5.530;2023-04-12T02:05:14;6.72;;;2.45;;
59788;SDS011;47353;51.614;5.530;2023-04-12T02:07:40;6.88;;;2.33;;
59788;SDS011;47353;51.614;5.530;2023-04-12T02:10:06;7.22;;;2.15;;
59788;SDS011;47353;51.614;5.530;2023-04-12T02:12:32;8.20;;;2.30;;
59788;SDS011;47353;51.614;5.530;2023-04-12T02:14:57;7.15;;;2.15;;
59788;SDS011;47353;51.614;5.530;2023-04-12T02:17:24;6.68;;;1.90;;
59788;SDS011;47353;51.614;5.530;2023-04-12T02:19:49;7.00;;;2.00;;
59788;SDS011;47353;51.614;5.530;2023-04-12T02:22:15;3.40;;;1.90;;
59788;SDS011;47353;51.614;5.530;2023-04-12T02:24:41;8.10;;;2.13;;
59788;SDS011;47353;51.614;5.530;2023-04-12T02:27:06;4.30;;;1.63;;
59788;SDS011;47353;51.614;5.530;2023-04-12T02:29:31;3.90;;;1.60;;
59788;SDS011;47353;51.614;5.530;2023-04-12T02:31:57;7.88;;;1.90;;
59788;SDS011;47353;51.614;5.530;2023-04-12T02:34:23;6.13;;;2.00;;
59788;SDS011;47353;51.614;5.530;2023-04-12T02:36:48;4.68;;;2.00;;
59788;SDS011;47353;51.614;5.530;2023-04-12T02:39:14;7.40;;;1.52;;
59788;SDS011;47353;51.614;5.530;2023-04-12T02:41:42;4.93;;;1.58;;
59788;SDS011;47353;51.614;5.530;2023-04-12T02:44:08;5.60;;;1.70;;
59788;SDS011;47353;51.614;5.530;2023-04-12T02:46:34;4.72;;;1.80;;
59788;SDS011;47353;51.614;5.530;2023-04-12T02:48:59;3.65;;;1.58;;
59788;SDS011;47353;51.614;5.530;2023-04-12T02:51:24;8.18;;;1.50;;
59788;SDS011;47353;51.614;5.530;2023-04-12T02:53:50;6.03;;;1.70;;
59788;SDS011;47353;51.614;5.530;2023-04-12T02:56:15;1.73;;;1.25;;
59788;SDS011;47353;51.614;5.530;2023-04-12T02:58:43;4.03;;;1.80;;
59788;SDS011;47353;51.614;5.530;2023-04-12T03:01:08;5.55;;;1.83;;
59788;SDS011;47353;51.614;5.530;2023-04-12T03:03:37;5.57;;;1.80;;
59788;SDS011;47353;51.614;5.530;2023-04-12T03:06:03;5.95;;;1.60;;
59788;SDS011;47353;51.614;5.530;2023-04-12T03:08:29;6.07;;;1.70;;
59788;SDS011;47353;51.614;5.530;2023-04-12T03:10:55;3.85;;;1.30;;
59788;SDS011;47353;51.614;5.530;2023-04-12T03:13:21;5.32;;;1.55;;
59788;SDS011;47353;51.614;5.530;2023-04-12T03:15:47;2.30;;;1.40;;
59788;SDS011;47353;51.614;5.530;2023-04-12T03:18:16;3.53;;;1.23;;
59788;SDS011;47353;51.614;5.530;2023-04-12T03:20:44;3.53;;;1.38;;
59788;SDS011;47353;51.614;5.530;2023-04-12T03:23:10;3.38;;;1.52;;
59788;SDS011;47353;51.614;5.530;2023-04-12T03:25:35;7.50;;;1.95;;
59788;SDS011;47353;51.614;5.530;2023-04-12T03:28:01;3.80;;;1.80;;
59788;SDS011;47353;51.614;5.530;2023-04-12T03:30:27;3.90;;;1.70;;
59788;SDS011;47353;51.614;5.530;2023-04-12T03:32:52;2.33;;;1.33;;
59788;SDS011;47353;51.614;5.530;2023-04-12T03:35:17;3.80;;;1.95;;
59788;SDS011;47353;51.614;5.530;2023-04-12T03:37:43;5.43;;;1.85;;
59788;SDS011;47353;51.614;5.530;2023-04-12T03:40:08;5.75;;;1.77;;
59788;SDS011;47353;51.614;5.530;2023-04-12T03:42:34;3.15;;;1.77;;
59788;SDS011;47353;51.614;5.530;2023-04-12T03:45:00;4.15;;;1.52;;
59788;SDS011;47353;51.614;5.530;2023-04-12T03:47:26;4.88;;;1.58;;
59788;SDS011;47353;51.614;5.530;2023-04-12T03:49:53;3.65;;;1.80;;
59788;SDS011;47353;51.614;5.530;2023-04-12T03:52:19;4.93;;;1.65;;
59788;SDS011;47353;51.614;5.530;2023-04-12T03:54:45;2.28;;;1.60;;
59788;SDS011;47353;51.614;5.530;2023-04-12T03:57:10;5.72;;;1.85;;
59788;SDS011;47353;51.614;5.530;2023-04-12T03:59:36;4.53;;;1.65;;
59788;SDS011;47353;51.614;5.530;2023-04-12T04:02:01;3.47;;;1.58;;
59788;SDS011;47353;51.614;5.530;2023-04-12T04:04:27;5.53;;;1.88;;
59788;SDS011;47353;51.614;5.530;2023-04-12T04:06:52;4.30;;;1.80;;
59788;SDS011;47353;51.614;5.530;2023-04-12T04:09:18;4.63;;;1.90;;
59788;SDS011;47353;51.614;5.530;2023-04-12T04:11:44;3.35;;;1.50;;
59788;SDS011;47353;51.614;5.530;2023-04-12T04:14:11;5.13;;;2.10;;
59788;SDS011;47353;51.614;5.530;2023-04-12T04:16:36;5.30;;;1.80;;
59788;SDS011;47353;51.614;5.530;2023-04-12T04:19:02;3.25;;;1.48;;
59788;SDS011;47353;51.614;5.530;2023-04-12T04:21:27;3.63;;;1.98;;
59788;SDS011;47353;51.614;5.530;2023-04-12T04:23:57;8.68;;;1.92;;
59788;SDS011;47353;51.614;5.530;2023-04-12T04:26:25;4.68;;;1.92;;
59788;SDS011;47353;51.614;5.530;2023-04-12T04:28:56;4.03;;;1.73;;
59788;SDS011;47353;51.614;5.530;2023-04-12T04:31:25;4.35;;;1.83;;
59788;SDS011;47353;51.614;5.530;2023-04-12T04:33:51;4.50;;;1.70;;
59788;SDS011;47353;51.614;5.530;2023-04-12T04:36:17;5.47;;;2.00;;
59788;SDS011;47353;51.614;5.530;2023-04-12T04:38:42;4.65;;;1.85;;
59788;SDS011;47353;51.614;5.530;2023-04-12T04:41:07;3.15;;;1.60;;
59788;SDS011;47353;51.614;5.530;2023-04-12T04:43:34;3.75;;;1.77;;
59788;SDS011;47353;51.614;5.530;2023-04-12T04:46:03;5.65;;;1.90;;
59788;SDS011;47353;51.614;5.530;2023-04-12T04:48:29;4.20;;;1.58;;
59788;SDS011;47353;51.614;5.530;2023-04-12T04:50:55;4.30;;;2.05;;
59788;SDS011;47353;51.614;5.530;2023-04-12T04:53:20;5.30;;;2.08;;
59788;SDS011;47353;51.614;5.530;2023-04-12T04:55:46;3.70;;;1.80;;
59788;SDS011;47353;51.614;5.530;2023-04-12T04:58:12;5.18;;;2.13;;
59788;SDS011;47353;51.614;5.530;2023-04-12T05:00:38;5.22;;;1.65;;
59788;SDS011;47353;51.614;5.530;2023-04-12T05:03:03;4.78;;;1.85;;
59788;SDS011;47353;51.614;5.530;2023-04-12T05:05:29;4.47;;;1.80;;
59788;SDS011;47353;51.614;5.530;2023-04-12T05:07:55;4.22;;;2.00;;
59788;SDS011;47353;51.614;5.530;2023-04-12T05:10:22;5.40;;;1.90;;
59788;SDS011;47353;51.614;5.530;2023-04-12T05:12:47;6.82;;;2.33;;
59788;SDS011;47353;51.614;5.530;2023-04-12T05:15:13;4.60;;;2.17;;
59788;SDS011;47353;51.614;5.530;2023-04-12T05:17:38;5.20;;;2.20;;
59788;SDS011;47353;51.614;5.530;2023-04-12T05:20:04;6.78;;;2.08;;
59788;SDS011;47353;51.614;5.530;2023-04-12T05:22:32;5.80;;;2.25;;
59788;SDS011;47353;51.614;5.530;2023-04-12T05:24:57;3.45;;;1.98;;
59788;SDS011;47353;51.614;5.530;2023-04-12T05:27:23;4.32;;;2.20;;
59788;SDS011;47353;51.614;5.530;2023-04-12T05:29:48;5.03;;;2.10;;
59788;SDS011;47353;51.614;5.530;2023-04-12T05:32:13;4.63;;;1.70;;
59788;SDS011;47353;51.614;5.530;2023-04-12T05:34:39;3.55;;;2.45;;
59788;SDS011;47353;51.614;5.530;2023-04-12T05:37:04;3.92;;;2.50;;
59788;SDS011;47353;51.614;5.530;2023-04-12T05:39:32;4.00;;;2.40;;
59788;SDS011;47353;51.614;5.530;2023-04-12T05:41:57;4.60;;;2.63;;
59788;SDS011;47353;51.614;5.530;2023-04-12T05:44:23;7.00;;;2.33;;
59788;SDS011;47353;51.614;5.530;2023-04-12T05:46:48;4.35;;;2.10;;
59788;SDS011;47353;51.614;5.530;2023-04-12T05:49:14;5.82;;;2.60;;
59788;SDS011;47353;51.614;5.530;2023-04-12T05:51:40;6.45;;;2.55;;
59788;SDS011;47353;51.614;5.530;2023-04-12T05:54:05;3.67;;;2.30;;
59788;SDS011;47353;51.614;5.530;2023-04-12T05:56:31;4.30;;;2.78;;
59788;SDS011;47353;51.614;5.530;2023-04-12T05:58:57;5.95;;;2.83;;
59788;SDS011;47353;51.614;5.530;2023-04-12T06:01:23;5.15;;;2.97;;
59788;SDS011;47353;51.614;5.530;2023-04-12T06:03:58;6.78;;;2.88;;
59788;SDS011;47353;51.614;5.530;2023-04-12T06:06:26;4.53;;;2.50;;
59788;SDS011;47353;51.614;5.530;2023-04-12T06:08:54;6.30;;;3.10;;
59788;SDS011;47353;51.614;5.530;2023-04-12T06:11:21;7.10;;;3.03;;
59788;SDS011;47353;51.614;5.530;2023-04-12T06:13:47;7.05;;;3.22;;
59788;SDS011;47353;51.614;5.530;2023-04-12T06:16:13;4.70;;;3.20;;
59788;SDS011;47353;51.614;5.530;2023-04-12T06:18:38;4.55;;;2.92;;
59788;SDS011;47353;51.614;5.530;2023-04-12T06:21:04;4.38;;;2.50;;
59788;SDS011;47353;51.614;5.530;2023-04-12T06:23:29;4.97;;;2.75;;
59788;SDS011;47353;51.614;5.530;2023-04-12T06:25:55;4.25;;;1.75;;
59788;SDS011;47353;51.614;5.530;2023-04-12T06:28:20;4.43;;;2.78;;
59788;SDS011;47353;51.614;5.530;2023-04-12T06:30:45;4.28;;;2.53;;
59788;SDS011;47353;51.614;5.530;2023-04-12T06:33:11;5.18;;;3.05;;
59788;SDS011;47353;51.614;5.530;2023-04-12T06:35:36;7.38;;;3.33;;
59788;SDS011;47353;51.614;5.530;2023-04-12T06:38:02;7.45;;;3.20;;
59788;SDS011;47353;51.614;5.530;2023-04-12T06:40:27;7.18;;;3.30;;
59788;SDS011;47353;51.614;5.530;2023-04-12T06:42:52;5.55;;;3.17;;
59788;SDS011;47353;51.614;5.530;2023-04-12T06:45:18;4.50;;;3.00;;
59788;SDS011;47353;51.614;5.530;2023-04-12T06:47:43;5.38;;;2.90;;
59788;SDS011;47353;51.614;5.530;2023-04-12T06:50:09;5.72;;;3.30;;
59788;SDS011;47353;51.614;5.530;2023-04-12T06:52:34;7.00;;;3.53;;
59788;SDS011;47353;51.614;5.530;2023-04-12T06:55:00;5.57;;;3.40;;
59788;SDS011;47353;51.614;5.530;2023-04-12T06:57:25;6.32;;;3.60;;
59788;SDS011;47353;51.614;5.530;2023-04-12T06:59:51;5.78;;;4.15;;
59788;SDS011;47353;51.614;5.530;2023-04-12T07:02:16;7.05;;;4.50;;
59788;SDS011;47353;51.614;5.530;2023-04-12T07:04:42;5.47;;;4.35;;
59788;SDS011;47353;51.614;5.530;2023-04-12T07:07:07;7.15;;;4.25;;
59788;SDS011;47353;51.614;5.530;2023-04-12T07:09:34;6.22;;;4.68;;
59788;SDS011;47353;51.614;5.530;2023-04-12T07:11:59;7.10;;;5.00;;
59788;SDS011;47353;51.614;5.530;2023-04-12T07:14:26;6.32;;;4.60;;
59788;SDS011;47353;51.614;5.530;2023-04-12T07:16:51;6.80;;;4.22;;
59788;SDS011;47353;51.614;5.530;2023-04-12T07:19:17;6.32;;;4.82;;
59788;SDS011;47353;51.614;5.530;2023-04-12T07:21:42;7.38;;;5.30;;
59788;SDS011;47353;51.614;5.530;2023-04-12T07:24:08;10.32;;;4.30;;
59788;SDS011;47353;51.614;5.530;2023-04-12T07:26:33;9.07;;;5.13;;
59788;SDS011;47353;51.614;5.530;2023-04-12T07:28:59;5.95;;;4.30;;
59788;SDS011;47353;51.614;5.530;2023-04-12T07:31:24;7.05;;;4.68;;
59788;SDS011;47353;51.614;5.530;2023-04-12T07:33:50;13.38;;;5.75;;
59788;SDS011;47353;51.614;5.530;2023-04-12T07:36:15;9.88;;;4.90;;
59788;SDS011;47353;51.614;5.530;2023-04-12T07:38:44;10.73;;;4.97;;
59788;SDS011;47353;51.614;5.530;2023-04-12T07:41:09;15.73;;;6.00;;
59788;SDS011;47353;51.614;5.530;2023-04-12T07:43:35;11.45;;;5.15;;
59788;SDS011;47353;51.614;5.530;2023-04-12T07:46:00;10.88;;;5.80;;
59788;SDS011;47353;51.614;5.530;2023-04-12T07:48:31;13.40;;;5.90;;
59788;SDS011;47353;51.614;5.530;2023-04-12T07:50:56;14.15;;;6.03;;
59788;SDS011;47353;51.614;5.530;2023-04-12T07:53:22;13.45;;;6.05;;
59788;SDS011;47353;51.614;5.530;2023-04-12T07:55:50;9.05;;;4.40;;
59788;SDS011;47353;51.614;5.530;2023-04-12T07:58:16;8.98;;;3.95;;
59788;SDS011;47353;51.614;5.530;2023-04-12T08:00:43;10.27;;;3.92;;
59788;SDS011;47353;51.614;5.530;2023-04-12T08:03:12;9.38;;;4.95;;
59788;SDS011;47353;51.614;5.530;2023-04-12T08:05:38;11.50;;;5.88;;
59788;SDS011;47353;51.614;5.530;2023-04-12T08:08:04;9.70;;;4.82;;
59788;SDS011;47353;51.614;5.530;2023-04-12T08:10:30;9.35;;;4.20;;
59788;SDS011;47353;51.614;5.530;2023-04-12T08:12:56;10.98;;;4.20;;
59788;SDS011;47353;51.614;5.530;2023-04-12T08:15:22;9.98;;;4.55;;
59788;SDS011;47353;51.614;5.530;2023-04-12T08:17:48;10.07;;;4.70;;
59788;SDS011;47353;51.614;5.530;2023-04-12T08:20:14;11.15;;;4.78;;
59788;SDS011;47353;51.614;5.530;2023-04-12T08:22:41;18.02;;;6.97;;
59788;SDS011;47353;51.614;5.530;2023-04-12T08:25:07;11.48;;;4.53;;
59788;SDS011;47353;51.614;5.530;2023-04-12T08:27:33;10.68;;;3.50;;
59788;SDS011;47353;51.614;5.530;2023-04-12T08:29:58;10.98;;;4.43;;
59788;SDS011;47353;51.614;5.530;2023-04-12T08:32:23;7.35;;;3.60;;
59788;SDS011;47353;51.614;5.530;2023-04-12T08:34:49;8.57;;;3.38;;
59788;SDS011;47353;51.614;5.530;2023-04-12T08:37:15;14.02;;;4.93;;
59788;SDS011;47353;51.614;5.530;2023-04-12T08:39:41;10.20;;;3.60;;
59788;SDS011;47353;51.614;5.530;2023-04-12T08:42:07;9.57;;;3.63;;
59788;SDS011;47353;51.614;5.530;2023-04-12T08:44:36;8.30;;;3.67;;
59788;SDS011;47353;51.614;5.530;2023-04-12T08:47:03;5.30;;;3.22;;
59788;SDS011;47353;51.614;5.530;2023-04-12T08:49:30;11.82;;;4.20;;
59788;SDS011;47353;51.614;5.530;2023-04-12T08:51:58;9.45;;;3.65;;
59788;SDS011;47353;51.614;5.530;2023-04-12T08:54:24;10.20;;;4.22;;
59788;SDS011;47353;51.614;5.530;2023-04-12T08:56:51;11.60;;;4.40;;
59788;SDS011;47353;51.614;5.530;2023-04-12T08:59:18;11.50;;;4.30;;
59788;SDS011;47353;51.614;5.530;2023-04-12T09:01:44;12.15;;;4.00;;
59788;SDS011;47353;51.614;5.530;2023-04-12T09:04:09;12.15;;;4.22;;
59788;SDS011;47353;51.614;5.530;2023-04-12T09:06:35;8.40;;;3.75;;
59788;SDS011;47353;51.614;5.530;2023-04-12T09:09:01;6.50;;;3.60;;
59788;SDS011;47353;51.614;5.530;2023-04-12T09:11:30;7.40;;;3.45;;
59788;SDS011;47353;51.614;5.530;2023-04-12T09:13:56;9.75;;;3.00;;
59788;SDS011;47353;51.614;5.530;2023-04-12T09:19:03;15.85;;;2.95;;
59788;SDS011;47353;51.614;5.530;2023-04-12T09:21:30;13.60;;;2.85;;
59788;SDS011;47353;51.614;5.530;2023-04-12T09:24:05;11.48;;;2.90;;
59788;SDS011;47353;51.614;5.530;2023-04-12T09:26:37;10.95;;;3.00;;
59788;SDS011;47353;51.614;5.530;2023-04-12T09:29:03;11.50;;;3.35;;
59788;SDS011;47353;51.614;5.530;2023-04-12T09:31:29;12.75;;;4.20;;
59788;SDS011;47353;51.614;5.530;2023-04-12T09:34:05;12.55;;;3.50;;
59788;SDS011;47353;51.614;5.530;2023-04-12T09:36:38;13.13;;;3.70;;
59788;SDS011;47353;51.614;5.530;2023-04-12T09:39:05;13.90;;;3.90;;
59788;SDS011;47353;51.614;5.530;2023-04-12T09:41:31;13.23;;;4.10;;
59788;SDS011;47353;51.614;5.530;2023-04-12T09:43:57;12.20;;;4.00;;
59788;SDS011;47353;51.614;5.530;2023-04-12T09:46:23;12.90;;;4.63;;
59788;SDS011;47353;51.614;5.530;2023-04-12T09:48:50;19.33;;;5.97;;
59788;SDS011;47353;51.614;5.530;2023-04-12T09:53:53;15.90;;;6.97;;
59788;SDS011;47353;51.614;5.530;2023-04-12T09:56:23;15.02;;;6.00;;
59788;SDS011;47353;51.614;5.530;2023-04-12T09:58:52;16.27;;;5.82;;
59788;SDS011;47353;51.614;5.530;2023-04-12T10:01:18;17.33;;;7.55;;
59788;SDS011;47353;51.614;5.530;2023-04-12T10:03:46;20.92;;;6.03;;
59788;SDS011;47353;51.614;5.530;2023-04-12T10:06:12;17.45;;;5.50;;
59788;SDS011;47353;51.614;5.530;2023-04-12T10:08:38;17.77;;;5.20;;
59788;SDS011;47353;51.614;5.530;2023-04-12T10:11:05;18.95;;;6.20;;
59788;SDS011;47353;51.614;5.530;2023-04-12T10:13:31;14.73;;;5.10;;
59788;SDS011;47353;51.614;5.530;2023-04-12T10:15:57;12.55;;;5.22;;
59788;SDS011;47353;51.614;5.530;2023-04-12T10:18:24;18.38;;;5.63;;
59788;SDS011;47353;51.614;5.530;2023-04-12T10:20:51;16.67;;;5.95;;
59788;SDS011;47353;51.614;5.530;2023-04-12T10:23:17;16.23;;;6.05;;
59788;SDS011;47353;51.614;5.530;2023-04-12T10:25:43;18.80;;;5.97;;
59788;SDS011;47353;51.614;5.530;2023-04-12T10:28:15;22.88;;;8.30;;
59788;SDS011;47353;51.614;5.530;2023-04-12T10:30:42;16.98;;;4.45;;
59788;SDS011;47353;51.614;5.530;2023-04-12T10:38:14;18.92;;;4.75;;
59788;SDS011;47353;51.614;5.530;2023-04-12T10:43:31;14.73;;;3.72;;
59788;SDS011;47353;51.614;5.530;2023-04-12T10:45:56;17.45;;;3.67;;
59788;SDS011;47353;51.614;5.530;2023-04-12T10:48:35;13.27;;;3.60;;
59788;SDS011;47353;51.614;5.530;2023-04-12T10:51:11;17.35;;;3.83;;
59788;SDS011;47353;51.614;5.530;2023-04-12T10:53:41;16.52;;;3.05;;
59788;SDS011;47353;51.614;5.530;2023-04-12T10:58:54;17.58;;;2.80;;
59788;SDS011;47353;51.614;5.530;2023-04-12T11:01:24;17.45;;;4.28;;
59788;SDS011;47353;51.614;5.530;2023-04-12T11:04:06;20.30;;;4.50;;
59788;SDS011;47353;51.614;5.530;2023-04-12T11:06:41;14.20;;;2.53;;
59788;SDS011;47353;51.614;5.530;2023-04-12T11:09:28;13.02;;;2.40;;
59788;SDS011;47353;51.614;5.530;2023-04-12T11:14:35;9.32;;;2.55;;
59788;SDS011;47353;51.614;5.530;2023-04-12T11:19:41;12.63;;;2.85;;
59788;SDS011;47353;51.614;5.530;2023-04-12T11:22:09;16.52;;;3.00;;
59788;SDS011;47353;51.614;5.530;2023-04-12T11:24:42;15.63;;;3.10;;
59788;SDS011;47353;51.614;5.530;2023-04-12T11:27:09;15.38;;;3.03;;
59788;SDS011;47353;51.614;5.530;2023-04-12T11:29:36;18.27;;;2.95;;
59788;SDS011;47353;51.614;5.530;2023-04-12T11:32:02;19.98;;;3.58;;
59788;SDS011;47353;51.614;5.530;2023-04-12T11:34:32;21.15;;;3.60;;
59788;SDS011;47353;51.614;5.530;2023-04-12T11:36:58;14.57;;;4.10;;
59788;SDS011;47353;51.614;5.530;2023-04-12T11:39:25;14.60;;;4.15;;
59788;SDS011;47353;51.614;5.530;2023-04-12T11:41:52;17.90;;;5.35;;
59788;SDS011;47353;51.614;5.530;2023-04-12T11:44:18;20.85;;;5.57;;
59788;SDS011;47353;51.614;5.530;2023-04-12T11:46:46;17.58;;;5.80;;
59788;SDS011;47353;51.614;5.530;2023-04-12T11:49:15;17.30;;;6.13;;
59788;SDS011;47353;51.614;5.530;2023-04-12T11:51:42;19.73;;;6.18;;
59788;SDS011;47353;51.614;5.530;2023-04-12T11:54:09;18.58;;;6.20;;
59788;SDS011;47353;51.614;5.530;2023-04-12T11:56:36;15.63;;;5.60;;
59788;SDS011;47353;51.614;5.530;2023-04-12T11:59:02;14.43;;;4.63;;
59788;SDS011;47353;51.614;5.530;2023-04-12T12:01:27;13.18;;;4.15;;
59788;SDS011;47353;51.614;5.530;2023-04-12T12:03:54;15.82;;;4.75;;
59788;SDS011;47353;51.614;5.530;2023-04-12T12:06:19;15.82;;;3.92;;
59788;SDS011;47353;51.614;5.530;2023-04-12T12:08:50;15.07;;;3.97;;
59788;SDS011;47353;51.614;5.530;2023-04-12T12:11:19;13.40;;;3.78;;
59788;SDS011;47353;51.614;5.530;2023-04-12T12:13:48;16.98;;;4.60;;
59788;SDS011;47353;51.614;5.530;2023-04-12T12:16:15;14.77;;;3.78;;
59788;SDS011;47353;51.614;5.530;2023-04-12T12:18:42;13.98;;;3.20;;
59788;SDS011;47353;51.614;5.530;2023-04-12T12:21:09;15.85;;;3.78;;
59788;SDS011;47353;51.614;5.530;2023-04-12T12:23:36;9.88;;;2.15;;
59788;SDS011;47353;51.614;5.530;2023-04-12T12:26:01;12.73;;;3.60;;
59788;SDS011;47353;51.614;5.530;2023-04-12T12:28:28;10.63;;;1.95;;
59788;SDS011;47353;51.614;5.530;2023-04-12T12:30:57;10.25;;;3.47;;
59788;SDS011;47353;51.614;5.530;2023-04-12T12:33:22;4.68;;;1.70;;
59788;SDS011;47353;51.614;5.530;2023-04-12T12:35:55;5.70;;;1.70;;
59788;SDS011;47353;51.614;5.530;2023-04-12T12:38:21;5.57;;;2.10;;
59788;SDS011;47353;51.614;5.530;2023-04-12T12:40:47;4.72;;;2.10;;
59788;SDS011;47353;51.614;5.530;2023-04-12T12:43:17;9.18;;;2.70;;
59788;SDS011;47353;51.614;5.530;2023-04-12T12:45:44;7.82;;;2.53;;
59788;SDS011;47353;51.614;5.530;2023-04-12T12:48:09;7.15;;;2.33;;
59788;SDS011;47353;51.614;5.530;2023-04-12T12:50:35;8.13;;;2.50;;
59788;SDS011;47353;51.614;5.530;2023-04-12T12:53:01;8.18;;;2.40;;
59788;SDS011;47353;51.614;5.530;2023-04-12T12:55:28;9.07;;;2.75;;
59788;SDS011;47353;51.614;5.530;2023-04-12T12:57:55;8.07;;;2.70;;
59788;SDS011;47353;51.614;5.530;2023-04-12T13:00:22;10.85;;;2.35;;
59788;SDS011;47353;51.614;5.530;2023-04-12T13:02:49;8.80;;;2.30;;
59788;SDS011;47353;51.614;5.530;2023-04-12T13:05:15;10.15;;;2.40;;
59788;SDS011;47353;51.614;5.530;2023-04-12T13:07:40;10.38;;;2.63;;
59788;SDS011;47353;51.614;5.530;2023-04-12T13:10:06;11.20;;;2.80;;
59788;SDS011;47353;51.614;5.530;2023-04-12T13:12:33;9.98;;;2.40;;
59788;SDS011;47353;51.614;5.530;2023-04-12T13:14:58;7.80;;;2.58;;
59788;SDS011;47353;51.614;5.530;2023-04-12T13:17:27;9.68;;;2.50;;
59788;SDS011;47353;51.614;5.530;2023-04-12T13:19:53;8.48;;;2.55;;
59788;SDS011;47353;51.614;5.530;2023-04-12T13:22:19;7.38;;;2.55;;
59788;SDS011;47353;51.614;5.530;2023-04-12T13:24:45;8.65;;;2.78;;
59788;SDS011;47353;51.614;5.530;2023-04-12T13:27:13;14.73;;;4.68;;
59788;SDS011;47353;51.614;5.530;2023-04-12T13:29:39;15.15;;;3.70;;
59788;SDS011;47353;51.614;5.530;2023-04-12T13:32:05;7.65;;;2.30;;
59788;SDS011;47353;51.614;5.530;2023-04-12T13:34:31;7.00;;;2.30;;
59788;SDS011;47353;51.614;5.530;2023-04-12T13:36:56;8.40;;;2.33;;
59788;SDS011;47353;51.614;5.530;2023-04-12T13:39:22;10.30;;;2.63;;
59788;SDS011;47353;51.614;5.530;2023-04-12T13:41:49;9.35;;;3.58;;
59788;SDS011;47353;51.614;5.530;2023-04-12T13:44:15;7.75;;;2.83;;
59788;SDS011;47353;51.614;5.530;2023-04-12T13:46:40;5.30;;;1.60;;
59788;SDS011;47353;51.614;5.530;2023-04-12T13:49:06;5.50;;;1.80;;
59788;SDS011;47353;51.614;5.530;2023-04-12T13:51:31;6.30;;;2.05;;
59788;SDS011;47353;51.614;5.530;2023-04-12T13:53:57;5.30;;;1.65;;
59788;SDS011;47353;51.614;5.530;2023-04-12T13:56:22;5.07;;;1.70;;
59788;SDS011;47353;51.614;5.530;2023-04-12T13:58:48;7.25;;;1.90;;
59788;SDS011;47353;51.614;5.530;2023-04-12T14:01:13;5.75;;;1.60;;
59788;SDS011;47353;51.614;5.530;2023-04-12T14:03:39;5.05;;;1.67;;
59788;SDS011;47353;51.614;5.530;2023-04-12T14:06:05;4.78;;;1.58;;
59788;SDS011;47353;51.614;5.530;2023-04-12T14:08:31;6.97;;;1.50;;
59788;SDS011;47353;51.614;5.530;2023-04-12T14:10:57;4.15;;;1.40;;
59788;SDS011;47353;51.614;5.530;2023-04-12T14:13:23;4.03;;;1.40;;
59788;SDS011;47353;51.614;5.530;2023-04-12T14:15:50;4.30;;;1.20;;
59788;SDS011;47353;51.614;5.530;2023-04-12T14:18:16;3.92;;;1.50;;
59788;SDS011;47353;51.614;5.530;2023-04-12T14:20:41;3.25;;;1.30;;
59788;SDS011;47353;51.614;5.530;2023-04-12T14:23:09;3.50;;;1.38;;
59788;SDS011;47353;51.614;5.530;2023-04-12T14:25:37;4.18;;;1.15;;
59788;SDS011;47353;51.614;5.530;2023-04-12T14:28:03;2.80;;;1.13;;
59788;SDS011;47353;51.614;5.530;2023-04-12T14:30:29;2.45;;;1.27;;
59788;SDS011;47353;51.614;5.530;2023-04-12T14:32:54;5.78;;;1.38;;
59788;SDS011;47353;51.614;5.530;2023-04-12T14:35:20;3.55;;;1.60;;
59788;SDS011;47353;51.614;5.530;2023-04-12T14:37:45;2.10;;;1.50;;
59788;SDS011;47353;51.614;5.530;2023-04-12T14:40:11;4.70;;;1.90;;
59788;SDS011;47353;51.614;5.530;2023-04-12T14:42:36;5.93;;;2.00;;
59788;SDS011;47353;51.614;5.530;2023-04-12T14:45:01;4.07;;;1.92;;
59788;SDS011;47353;51.614;5.530;2023-04-12T14:47:29;8.32;;;1.40;;
59788;SDS011;47353;51.614;5.530;2023-04-12T14:49:54;3.35;;;1.42;;
59788;SDS011;47353;51.614;5.530;2023-04-12T14:52:20;2.72;;;1.10;;
59788;SDS011;47353;51.614;5.530;2023-04-12T14:54:46;3.63;;;1.45;;
59788;SDS011;47353;51.614;5.530;2023-04-12T14:57:11;3.80;;;1.52;;
59788;SDS011;47353;51.614;5.530;2023-04-12T14:59:36;4.45;;;1.50;;
59788;SDS011;47353;51.614;5.530;2023-04-12T15:02:02;4.45;;;1.58;;
59788;SDS011;47353;51.614;5.530;2023-04-12T15:04:27;5.72;;;2.25;;
59788;SDS011;47353;51.614;5.530;2023-04-12T15:06:53;5.75;;;2.30;;
59788;SDS011;47353;51.614;5.530;2023-04-12T15:09:19;2.85;;;1.42;;
59788;SDS011;47353;51.614;5.530;2023-04-12T15:11:48;4.22;;;1.35;;
59788;SDS011;47353;51.614;5.530;2023-04-12T15:14:13;2.45;;;1.30;;